createdAt,value
2023-03-21T00:00:50.571Z,10.79
2023-03-21T00:03:20.063Z,10.79
2023-03-21T00:05:52.102Z,10.82
2023-03-21T00:08:22.433Z,10.83
2023-03-21T00:10:59.453Z,10.84
2023-03-21T00:13:33.135Z,10.63
2023-03-21T00:16:18.771Z,10.67
2023-03-21T00:18:57.385Z,10.71
2023-03-21T00:24:18.212Z,10.82
2023-03-21T00:26:47.951Z,10.81
2023-03-21T00:29:19.980Z,10.90
2023-03-21T00:31:49.318Z,10.71
2023-03-21T00:34:26.723Z,10.85
2023-03-21T00:37:07.362Z,10.65
2023-03-21T00:39:36.642Z,10.84
2023-03-21T00:42:06.522Z,10.79
2023-03-21T00:44:40.322Z,10.83
2023-03-21T00:47:09.821Z,10.86
2023-03-21T00:49:39.734Z,10.96
2023-03-21T00:52:20.169Z,10.89
2023-03-21T00:54:51.852Z,10.93
2023-03-21T00:57:29.373Z,10.92
2023-03-21T01:00:10.599Z,10.94
2023-03-21T01:02:43.394Z,10.99
2023-03-21T01:05:34.553Z,10.92
2023-03-21T01:08:20.622Z,10.84
2023-03-21T01:10:54.877Z,10.69
2023-03-21T01:13:29.995Z,10.72
2023-03-21T01:16:05.246Z,10.78
2023-03-21T01:18:36.570Z,10.81
2023-03-21T01:21:10.606Z,10.84
2023-03-21T01:23:40.852Z,10.84
2023-03-21T01:26:11.640Z,10.95
2023-03-21T01:28:42.604Z,10.94
2023-03-21T01:31:16.102Z,10.86
2023-03-21T01:33:45.894Z,10.90
2023-03-21T01:36:22.286Z,10.95
2023-03-21T01:38:52.842Z,10.88
2023-03-21T01:41:46.691Z,10.80
2023-03-21T01:44:20.456Z,10.84
2023-03-21T01:47:12.164Z,10.77
2023-03-21T01:49:46.332Z,10.93
2023-03-21T01:52:33.509Z,10.80
2023-03-21T01:55:07.146Z,10.92
2023-03-21T01:57:51.864Z,10.86
2023-03-21T02:00:31.777Z,10.80
2023-03-21T02:03:16.883Z,10.94
2023-03-21T02:05:56.432Z,10.80
2023-03-21T02:08:38.358Z,10.86
2023-03-21T02:11:09.977Z,10.87
2023-03-21T02:13:39.475Z,10.81
2023-03-21T02:16:17.256Z,10.67
2023-03-21T02:18:57.735Z,10.88
2023-03-21T02:21:57.092Z,10.95
2023-03-21T02:25:01.256Z,10.66
2023-03-21T02:27:37.611Z,10.72
2023-03-21T02:30:50.867Z,10.73
2023-03-21T02:33:42.491Z,10.77
2023-03-21T02:36:30.617Z,10.86
2023-03-21T02:39:14.277Z,10.86
2023-03-21T02:41:50.640Z,10.94
2023-03-21T02:44:26.547Z,10.88
2023-03-21T02:47:05.887Z,10.88
2023-03-21T02:49:42.983Z,10.84
2023-03-21T02:52:28.336Z,10.88
2023-03-21T02:55:05.918Z,10.96
2023-03-21T02:57:42.575Z,11.03
2023-03-21T03:00:16.964Z,10.92
2023-03-21T03:02:48.843Z,10.86
2023-03-21T03:05:22.222Z,10.94
2023-03-21T03:08:14.949Z,10.88
2023-03-21T03:10:58.516Z,10.92
2023-03-21T03:13:40.722Z,10.95
2023-03-21T03:16:19.937Z,11.00
2023-03-21T03:18:55.187Z,10.93
2023-03-21T03:21:32.508Z,11.00
2023-03-21T03:24:08.579Z,10.97
2023-03-21T03:26:44.476Z,10.99
2023-03-21T03:29:19.319Z,10.93
2023-03-21T03:31:54.274Z,10.99
2023-03-21T03:34:26.885Z,11.02
2023-03-21T03:37:03.205Z,10.92
2023-03-21T03:39:38.307Z,11.09
2023-03-21T03:42:27.696Z,10.94
2023-03-21T03:44:58.656Z,10.89
2023-03-21T03:47:39.943Z,10.99
2023-03-21T03:50:21.096Z,10.99
2023-03-21T03:52:57.149Z,11.02
2023-03-21T03:55:34.346Z,11.03
2023-03-21T03:58:10.622Z,11.07
2023-03-21T04:00:49.544Z,10.97
2023-03-21T04:03:19.064Z,10.88
2023-03-21T04:05:48.592Z,10.91
2023-03-21T04:08:19.268Z,10.83
2023-03-21T04:10:48.571Z,10.72
2023-03-21T04:13:20.474Z,10.94
2023-03-21T04:15:49.800Z,10.82
2023-03-21T04:18:19.128Z,10.98
2023-03-21T04:20:49.451Z,10.95
2023-03-21T04:23:18.993Z,11.01
2023-03-21T04:25:56.262Z,10.94
2023-03-21T04:28:28.450Z,10.93
2023-03-21T04:31:04.916Z,11.02
2023-03-21T04:33:38.446Z,11.05
2023-03-21T04:36:09.435Z,11.03
2023-03-21T04:38:39.198Z,10.97
2023-03-21T04:41:09.028Z,10.98
2023-03-21T04:43:40.911Z,11.06
2023-03-21T04:46:10.240Z,11.06
2023-03-21T04:48:39.735Z,10.98
2023-03-21T04:51:09.361Z,11.07
2023-03-21T04:53:39.498Z,11.08
2023-03-21T04:56:09.396Z,11.17
2023-03-21T04:58:41.586Z,11.16
2023-03-21T05:01:14.542Z,11.15
2023-03-21T05:03:43.915Z,11.05
2023-03-21T05:06:13.287Z,11.10
2023-03-21T05:08:42.566Z,11.11
2023-03-21T05:11:11.871Z,11.00
2023-03-21T05:13:44.196Z,11.03
2023-03-21T05:16:13.568Z,11.02
2023-03-21T05:18:42.952Z,11.07
2023-03-21T05:21:13.536Z,10.98
2023-03-21T05:23:42.817Z,11.01
2023-03-21T05:26:12.989Z,10.90
2023-03-21T05:28:44.856Z,11.00
2023-03-21T05:31:16.679Z,10.94
2023-03-21T05:33:46.087Z,10.86
2023-03-21T05:36:17.173Z,10.84
2023-03-21T05:38:47.535Z,10.78
2023-03-21T05:41:19.193Z,10.68
2023-03-21T05:43:51.208Z,10.62
2023-03-21T05:46:21.030Z,10.57
2023-03-21T05:48:50.276Z,10.63
2023-03-21T05:51:19.598Z,10.53
2023-03-21T05:53:48.944Z,10.56
2023-03-21T05:56:19.096Z,10.48
2023-03-21T05:58:51.230Z,10.56
2023-03-21T06:01:20.527Z,10.53
2023-03-21T06:03:49.923Z,10.59
2023-03-21T06:06:19.330Z,10.43
2023-03-21T06:08:48.861Z,10.44
2023-03-21T06:11:27.443Z,10.51
2023-03-21T06:13:59.629Z,10.45
2023-03-21T06:16:28.973Z,10.47
2023-03-21T06:18:58.354Z,10.41
2023-03-21T06:21:27.630Z,10.41
2023-03-21T06:23:57.084Z,10.40
2023-03-21T06:26:26.419Z,10.32
2023-03-21T06:28:59.029Z,10.40
2023-03-21T06:31:28.284Z,10.41
2023-03-21T06:33:57.534Z,10.35
2023-03-21T06:36:26.843Z,10.38
2023-03-21T06:38:56.654Z,10.31
2023-03-21T06:41:26.039Z,10.35
2023-03-21T06:43:55.470Z,10.38
2023-03-21T06:46:27.338Z,10.45
2023-03-21T06:48:56.555Z,10.31
2023-03-21T06:51:25.908Z,10.43
2023-03-21T06:53:55.485Z,10.35
2023-03-21T06:56:24.739Z,10.38
2023-03-21T06:58:54.002Z,10.44
2023-03-21T07:01:23.358Z,10.45
2023-03-21T07:03:56.747Z,10.27
2023-03-21T07:06:26.583Z,10.32
2023-03-21T07:08:56.862Z,10.38
2023-03-21T07:11:27.058Z,10.43
2023-03-21T07:13:56.819Z,10.49
2023-03-21T07:16:26.198Z,10.33
2023-03-21T07:18:58.462Z,10.33
2023-03-21T07:21:27.716Z,10.33
2023-03-21T07:23:57.068Z,10.34
2023-03-21T07:26:26.370Z,10.26
2023-03-21T07:28:55.709Z,10.26
2023-03-21T07:31:26.958Z,10.34
2023-03-21T07:33:58.852Z,10.30
2023-03-21T07:36:28.235Z,10.26
2023-03-21T07:38:57.664Z,10.34
2023-03-21T07:41:26.974Z,10.28
2023-03-21T07:43:56.293Z,10.23
2023-03-21T07:46:25.608Z,10.30
2023-03-21T07:48:54.878Z,10.25
2023-03-21T07:51:26.724Z,10.30
2023-03-21T07:53:56.259Z,10.34
2023-03-21T07:56:25.798Z,10.44
2023-03-21T07:58:55.045Z,10.46
2023-03-21T08:01:24.524Z,10.51
2023-03-21T08:03:54.001Z,10.65
2023-03-21T08:06:32.330Z,10.64
2023-03-21T08:09:03.074Z,10.60
2023-03-21T08:11:33.267Z,10.59
2023-03-21T08:14:03.197Z,10.63
2023-03-21T08:16:32.570Z,10.57
2023-03-21T08:19:01.860Z,10.56
2023-03-21T08:21:33.702Z,10.49
2023-03-21T08:24:02.905Z,10.56
2023-03-21T08:26:33.290Z,10.56
2023-03-21T08:29:26.262Z,10.63
2023-03-21T08:31:55.816Z,10.66
2023-03-21T08:34:26.738Z,10.72
2023-03-21T08:36:58.567Z,10.75
2023-03-21T08:39:28.530Z,10.68
2023-03-21T08:41:57.808Z,10.71
2023-03-21T08:44:27.049Z,10.65
2023-03-21T08:46:56.285Z,10.70
2023-03-21T08:49:26.152Z,10.71
2023-03-21T08:52:01.010Z,10.67
2023-03-21T08:54:30.409Z,10.75
2023-03-21T08:56:59.653Z,10.73
2023-03-21T08:59:28.926Z,10.64
2023-03-21T09:01:58.322Z,10.59
2023-03-21T09:04:30.645Z,10.74
2023-03-21T09:07:05.142Z,10.76
2023-03-21T09:09:34.707Z,10.85
2023-03-21T09:12:04.939Z,10.79
2023-03-21T09:14:34.760Z,10.86
2023-03-21T09:17:04.353Z,10.87
2023-03-21T09:19:34.986Z,10.88
2023-03-21T09:22:14.363Z,10.87
2023-03-21T09:24:44.997Z,10.81
2023-03-21T09:27:16.355Z,10.82
2023-03-21T09:29:46.071Z,10.88
2023-03-21T09:32:15.367Z,10.95
2023-03-21T09:34:44.644Z,11.05
2023-03-21T09:37:16.553Z,10.94
2023-03-21T09:39:46.146Z,10.89
2023-03-21T09:42:30.825Z,11.04
2023-03-21T09:45:09.884Z,11.02
2023-03-21T09:47:45.488Z,11.11
2023-03-21T09:50:20.114Z,11.09
2023-03-21T09:52:58.208Z,10.96
2023-03-21T09:55:31.347Z,11.11
2023-03-21T09:58:08.018Z,11.09
2023-03-21T10:00:43.388Z,11.24
2023-03-21T10:03:24.428Z,11.23
2023-03-21T10:05:57.544Z,11.27
2023-03-21T10:08:34.396Z,11.12
2023-03-21T10:11:08.252Z,11.16
2023-03-21T10:13:43.285Z,11.18
2023-03-21T10:16:17.393Z,11.22
2023-03-21T10:18:47.314Z,11.39
2023-03-21T10:21:51.458Z,11.32
2023-03-21T10:24:20.681Z,11.22
2023-03-21T10:26:52.422Z,11.35
2023-03-21T10:29:28.424Z,11.21
2023-03-21T10:31:58.089Z,11.34
2023-03-21T10:34:34.679Z,11.32
2023-03-21T10:37:06.357Z,11.35
2023-03-21T10:39:40.468Z,11.38
2023-03-21T10:42:20.027Z,11.36
2023-03-21T10:44:51.361Z,11.42
2023-03-21T10:47:24.224Z,11.39
2023-03-21T10:50:07.323Z,11.39
2023-03-21T10:52:38.628Z,11.22
2023-03-21T10:55:21.477Z,11.36
2023-03-21T10:57:51.828Z,11.37
2023-03-21T11:00:24.706Z,11.44
2023-03-21T11:02:56.547Z,11.38
2023-03-21T11:05:29.463Z,11.33
2023-03-21T11:08:02.975Z,11.38
2023-03-21T11:10:38.297Z,11.50
2023-03-21T11:13:10.518Z,11.37
2023-03-21T11:15:45.639Z,11.46
2023-03-21T11:18:21.605Z,11.58
2023-03-21T11:20:57.153Z,11.58
2023-03-21T11:23:30.443Z,11.60
2023-03-21T11:26:04.103Z,11.71
2023-03-21T11:28:39.471Z,11.77
2023-03-21T11:31:11.474Z,11.72
2023-03-21T11:33:44.810Z,11.63
2023-03-21T11:36:34.325Z,11.63
2023-03-21T11:39:28.710Z,11.78
2023-03-21T11:42:00.688Z,11.73
2023-03-21T11:44:33.532Z,11.80
2023-03-21T11:47:02.880Z,11.55
2023-03-21T11:49:33.334Z,11.60
2023-03-21T11:52:21.712Z,11.66
2023-03-21T11:55:08.034Z,11.51
2023-03-21T11:57:51.895Z,11.66
2023-03-21T12:00:26.871Z,11.79
2023-03-21T12:03:45.343Z,11.74
2023-03-21T12:06:25.214Z,11.67
2023-03-21T12:09:07.430Z,11.71
2023-03-21T12:11:46.238Z,11.75
2023-03-21T12:14:28.183Z,11.71
2023-03-21T12:17:11.646Z,11.81
2023-03-21T12:20:11.182Z,11.83
2023-03-21T12:22:52.742Z,11.78
2023-03-21T12:25:29.411Z,11.81
2023-03-21T12:28:10.517Z,11.80
2023-03-21T12:30:56.312Z,11.76
2023-03-21T12:33:39.368Z,11.73
2023-03-21T12:36:23.315Z,11.75
2023-03-21T12:39:06.881Z,11.72
2023-03-21T12:41:42.103Z,11.83
2023-03-21T12:44:15.321Z,11.81
2023-03-21T12:46:50.460Z,11.77
2023-03-21T12:49:26.026Z,11.92
2023-03-21T12:52:03.173Z,11.87
2023-03-21T12:54:38.052Z,11.91
2023-03-21T12:57:12.437Z,11.89
2023-03-21T12:59:48.227Z,11.82
2023-03-21T13:02:27.145Z,12.03
2023-03-21T13:05:02.983Z,11.85
2023-03-21T13:07:36.193Z,11.94
2023-03-21T13:10:14.449Z,11.96
2023-03-21T13:12:50.385Z,11.92
2023-03-21T13:15:40.437Z,12.02
2023-03-21T13:18:26.002Z,11.95
2023-03-21T13:20:59.345Z,11.97
2023-03-21T13:23:37.510Z,11.86
2023-03-21T13:26:12.484Z,11.87
2023-03-21T13:28:44.464Z,11.88
2023-03-21T13:31:24.895Z,12.01
2023-03-21T13:34:03.746Z,11.91
2023-03-21T13:36:39.684Z,11.98
2023-03-21T13:39:09.000Z,11.97
2023-03-21T13:41:41.024Z,11.86
2023-03-21T13:44:22.616Z,11.91
2023-03-21T13:46:57.542Z,11.93
2023-03-21T13:49:35.388Z,11.93
2023-03-21T13:52:06.177Z,11.96
2023-03-21T13:54:57.747Z,11.96
2023-03-21T13:57:41.423Z,12.05
2023-03-21T14:00:23.609Z,12.02
2023-03-21T14:02:59.512Z,11.96
2023-03-21T14:05:31.909Z,12.02
2023-03-21T14:08:15.301Z,11.96
2023-03-21T14:10:51.195Z,12.07
2023-03-21T14:13:24.510Z,12.09
2023-03-21T14:15:57.190Z,12.00
2023-03-21T14:18:52.300Z,12.02
2023-03-21T14:21:25.929Z,11.93
2023-03-21T14:24:03.331Z,11.94
2023-03-21T14:26:35.461Z,12.03
2023-03-21T14:29:09.660Z,11.94
2023-03-21T14:31:44.977Z,11.92
2023-03-21T14:34:15.076Z,11.90
2023-03-21T14:36:55.429Z,11.92
2023-03-21T14:39:31.160Z,11.93
2023-03-21T14:42:06.492Z,11.89
2023-03-21T14:44:52.850Z,12.05
2023-03-21T14:47:24.635Z,11.89
2023-03-21T14:49:54.588Z,11.93
2023-03-21T14:52:30.523Z,11.90
2023-03-21T14:55:00.784Z,11.81
2023-03-21T14:57:33.450Z,11.89
2023-03-21T15:00:12.463Z,11.90
2023-03-21T15:02:44.718Z,11.85
2023-03-21T15:05:21.278Z,11.87
2023-03-21T15:07:59.065Z,11.88
2023-03-21T15:10:30.854Z,11.84
2023-03-21T15:13:02.661Z,11.81
2023-03-21T15:15:34.430Z,11.83
2023-03-21T15:18:07.033Z,11.64
2023-03-21T15:20:40.341Z,11.57
2023-03-21T15:23:18.646Z,11.70
2023-03-21T15:25:48.413Z,11.90
2023-03-21T15:28:17.853Z,11.71
2023-03-21T15:30:51.751Z,11.92
2023-03-21T15:33:22.260Z,11.94
2023-03-21T15:35:55.760Z,12.05
2023-03-21T15:38:33.620Z,12.06
2023-03-21T15:41:19.788Z,11.94
2023-03-21T15:43:50.580Z,12.08
2023-03-21T15:46:34.327Z,12.14
2023-03-21T15:49:10.917Z,12.23
2023-03-21T15:51:40.590Z,12.17
2023-03-21T15:54:17.305Z,12.21
2023-03-21T15:56:51.693Z,12.03
2023-03-21T15:59:21.351Z,12.07
2023-03-21T16:01:53.886Z,12.18
2023-03-21T16:04:24.384Z,12.19
2023-03-21T16:06:58.917Z,12.17
2023-03-21T16:09:41.147Z,12.14
2023-03-21T16:12:15.391Z,12.04
2023-03-21T16:14:47.334Z,12.14
2023-03-21T16:17:28.903Z,11.93
2023-03-21T16:19:58.209Z,11.96
2023-03-21T16:22:28.344Z,11.91
2023-03-21T16:25:00.706Z,12.04
2023-03-21T16:27:29.959Z,11.98
2023-03-21T16:29:59.221Z,11.94
2023-03-21T16:32:28.748Z,11.91
2023-03-21T16:34:57.981Z,11.86
2023-03-21T16:37:27.253Z,11.92
2023-03-21T16:39:56.715Z,11.96
2023-03-21T16:42:28.654Z,11.78
2023-03-21T16:44:57.902Z,11.77
2023-03-21T16:47:27.129Z,11.77
2023-03-21T16:49:56.583Z,11.82
2023-03-21T16:52:26.633Z,11.85
2023-03-21T16:54:55.935Z,11.87
2023-03-21T16:57:30.292Z,11.77
2023-03-21T16:59:59.670Z,11.76
2023-03-21T17:02:29.076Z,11.63
2023-03-21T17:04:58.283Z,11.70
2023-03-21T17:07:27.561Z,11.76
2023-03-21T17:09:56.806Z,11.82
2023-03-21T17:12:28.730Z,11.82
2023-03-21T17:14:58.000Z,11.85
2023-03-21T17:17:27.194Z,11.87
2023-03-21T17:19:56.548Z,11.96
2023-03-21T17:22:25.880Z,11.80
2023-03-21T17:25:10.274Z,11.89
2023-03-21T17:27:43.660Z,11.53
2023-03-21T17:30:22.015Z,11.60
2023-03-21T17:32:51.935Z,11.66
2023-03-21T17:35:32.177Z,11.52
2023-03-21T17:43:50.970Z,11.50
2023-03-21T17:46:22.959Z,11.48
2023-03-21T17:48:52.641Z,11.43
2023-03-21T17:51:26.099Z,11.36
2023-03-21T17:53:55.662Z,11.38
2023-03-21T17:56:29.979Z,11.41
2023-03-21T17:59:03.648Z,11.48
2023-03-21T18:01:33.333Z,11.39
2023-03-21T18:04:05.006Z,11.48
2023-03-21T18:06:37.448Z,11.46
2023-03-21T18:09:11.750Z,11.46
2023-03-21T18:11:42.295Z,11.39
2023-03-21T18:14:18.190Z,11.33
2023-03-21T18:16:50.424Z,11.22
2023-03-21T18:19:19.791Z,11.30
2023-03-21T18:21:49.033Z,11.31
2023-03-21T18:24:18.251Z,11.38
2023-03-21T18:26:47.813Z,11.38
2023-03-21T18:30:18.068Z,11.39
2023-03-21T18:32:09.990Z,11.37
2023-03-21T18:34:41.734Z,11.56
2023-03-21T18:37:13.432Z,11.48
2023-03-21T18:39:44.409Z,11.38
2023-03-21T18:42:18.273Z,11.36
2023-03-21T18:44:52.318Z,11.33
2023-03-21T18:47:22.460Z,11.38
2023-03-21T18:52:42.134Z,11.32
2023-03-21T18:55:14.794Z,11.28
2023-03-21T18:57:45.656Z,11.30
2023-03-21T19:00:21.823Z,11.36
2023-03-21T19:03:04.003Z,11.28
2023-03-21T19:05:41.036Z,11.25
2023-03-21T19:08:10.853Z,11.30
2023-03-21T19:10:40.472Z,11.37
2023-03-21T19:13:10.453Z,11.23
2023-03-21T19:15:42.362Z,11.18
2023-03-21T19:21:03.560Z,11.23
2023-03-21T19:23:50.145Z,11.18
2023-03-21T19:26:22.128Z,11.18
2023-03-21T19:28:51.435Z,11.13
2023-03-21T19:31:24.228Z,11.17
2023-03-21T19:33:53.861Z,11.21
2023-03-21T19:36:26.063Z,11.27
2023-03-21T19:38:55.773Z,11.35
2023-03-21T19:41:25.439Z,11.36
2023-03-21T19:43:56.517Z,11.45
2023-03-21T19:46:29.177Z,11.35
2023-03-21T19:48:59.313Z,11.41
2023-03-21T19:51:30.589Z,11.28
2023-03-21T19:54:00.396Z,11.26
2023-03-21T19:56:31.613Z,11.31
2023-03-21T19:59:03.633Z,11.23
2023-03-21T20:01:37.126Z,11.17
2023-03-21T20:06:48.074Z,11.24
2023-03-21T20:09:50.584Z,11.19
2023-03-21T20:12:09.130Z,11.26
2023-03-21T20:14:38.489Z,11.29
2023-03-21T20:17:11.281Z,11.17
2023-03-21T20:19:40.593Z,11.17
2023-03-21T20:22:21.791Z,11.20
2023-03-21T20:24:56.415Z,11.27
2023-03-21T20:27:29.899Z,11.16
2023-03-21T20:30:09.071Z,11.25
2023-03-21T20:32:43.872Z,11.24
2023-03-21T20:35:21.303Z,11.23
2023-03-21T20:38:00.738Z,11.34
2023-03-21T20:40:30.486Z,11.26
2023-03-21T20:43:28.395Z,11.23
2023-03-21T20:45:50.915Z,11.33
2023-03-21T20:48:22.893Z,11.38
2023-03-21T20:50:57.859Z,11.26
2023-03-21T20:53:30.542Z,11.26
2023-03-21T20:56:04.656Z,11.34
2023-03-21T20:58:59.418Z,11.36
2023-03-21T21:01:26.423Z,11.48
2023-03-21T21:04:00.666Z,11.59
2023-03-21T21:06:30.281Z,11.53
2023-03-21T21:09:00.178Z,11.44
2023-03-21T21:14:21.269Z,11.68
2023-03-21T21:16:51.579Z,11.37
2023-03-21T21:19:23.560Z,11.62
2023-03-21T21:21:52.957Z,11.50
2023-03-21T21:24:22.297Z,11.40
2023-03-21T21:26:51.620Z,11.39
2023-03-21T21:29:23.114Z,11.47
2023-03-21T21:31:53.122Z,11.47
2023-03-21T21:34:24.925Z,11.61
2023-03-21T21:36:55.284Z,11.65
2023-03-21T21:39:26.623Z,11.69
2023-03-21T21:41:56.199Z,11.60
2023-03-21T21:44:25.621Z,11.54
2023-03-21T21:46:55.018Z,11.59
2023-03-21T21:49:28.291Z,11.58
2023-03-21T21:51:59.849Z,11.73
2023-03-21T21:54:30.188Z,11.64
2023-03-21T21:56:59.598Z,11.64
2023-03-21T21:59:29.267Z,11.66
2023-03-21T22:01:58.626Z,11.58
2023-03-21T22:04:30.521Z,11.62
2023-03-21T22:07:00.293Z,11.52
2023-03-21T22:09:29.594Z,11.59
2023-03-21T22:11:58.953Z,11.64
2023-03-21T22:14:28.259Z,11.72
2023-03-21T22:16:59.583Z,11.76
2023-03-21T22:19:31.834Z,11.70
2023-03-21T22:22:01.183Z,11.60
2023-03-21T22:24:30.562Z,11.38
2023-03-21T22:27:00.389Z,11.42
2023-03-21T22:29:31.151Z,11.48
2023-03-21T22:32:00.563Z,11.43
2023-03-21T22:34:32.807Z,11.41
2023-03-21T22:37:02.581Z,11.37
2023-03-21T22:39:31.925Z,11.41
2023-03-21T22:42:04.304Z,11.37
2023-03-21T22:44:37.150Z,11.24
2023-03-21T22:47:08.929Z,11.23
2023-03-21T22:49:42.527Z,11.08
2023-03-21T22:52:13.937Z,11.16
2023-03-21T22:54:43.351Z,11.26
2023-03-21T22:57:15.091Z,11.16
2023-03-21T22:59:45.400Z,11.18
2023-03-21T23:02:15.510Z,11.26
2023-03-21T23:04:48.161Z,11.27
2023-03-21T23:07:18.280Z,11.15
2023-03-21T23:12:23.280Z,11.25
2023-03-21T23:20:12.831Z,11.15
2023-03-21T23:22:47.371Z,11.22
2023-03-21T23:25:17.378Z,11.15
2023-03-21T23:30:22.368Z,10.95
2023-03-21T23:33:03.500Z,10.80
2023-03-21T23:35:50.941Z,10.80
2023-03-21T23:38:20.709Z,10.92
2023-03-21T23:41:04.683Z,10.82
2023-03-21T23:48:49.105Z,10.80
2023-03-21T23:51:21.993Z,10.88
2023-03-21T23:53:53.639Z,10.92
2023-03-21T23:56:26.098Z,10.90
2023-03-21T23:58:55.449Z,10.84
